High wind

Not for real navigation. The accuracy of this data is not assured See disclaimer for more information



ICAO NAME COUNTRY WIND Kt GUST Kt VIS m TEMP/DEW C BARO METAR
KMWN Mount Washington NH United States 45 0 1600 12/12 29.92 KMWN 181149Z 27045KT 1/16SM FG VV001 12/12 RMK 60000 10123 20114
CWEF Saint Paul Island Meteorologic Canada 35 0 9999 7/4 29.92 CWEF 181200Z AUTO 17035KT 07/04 RMK AO1 PK WND 17039/1150 SLP155 T00710043 56028
KSPR Ship Shoal LA United States 35 40 11200 26/22 30.04 KSPR 181235Z AUTO 17035G40KT 7SM FEW026 SCT042 BKN100 26/22 A3004 RMK A01
ENSF 33 0 9999 0/0 29.92 ENSF 181220Z AUTO 22033KT 9999NDV BKN056/// ///// Q//// W///S4
ENSE 32 0 9999 12/9 29.56 ENSE 181220Z AUTO 22032KT 9999NDV BKN051/// 12/09 Q1001 W///S4

Show more